createdAt,value
2023-02-03T00:00:43.900Z,38.02
2023-02-03T00:03:16.541Z,37.91
2023-02-03T00:05:47.353Z,37.65
2023-02-03T00:11:19.048Z,37.52
2023-02-03T00:13:54.609Z,37.25
2023-02-03T00:16:35.930Z,37.66
2023-02-03T00:19:30.772Z,37.15
2023-02-03T00:22:00.334Z,37.03
2023-02-03T00:24:39.921Z,36.84
2023-02-03T00:27:12.782Z,37.29
2023-02-03T00:29:42.833Z,36.84
2023-02-03T00:32:10.504Z,37.20
2023-02-03T00:34:43.336Z,37.14
2023-02-03T00:37:16.158Z,36.89
2023-02-03T00:39:50.258Z,37.02
2023-02-03T00:42:26.335Z,36.97
2023-02-03T00:47:40.023Z,37.10
2023-02-03T00:50:11.727Z,37.02
2023-02-03T00:52:40.804Z,36.75
2023-02-03T00:55:14.797Z,37.26
2023-02-03T00:57:54.894Z,37.79
2023-02-03T01:03:19.720Z,37.70
2023-02-03T01:06:14.056Z,37.64
2023-02-03T01:08:54.145Z,37.21
2023-02-03T01:11:40.935Z,37.44
2023-02-03T01:16:59.462Z,37.16
2023-02-03T01:22:20.543Z,37.19
2023-02-03T01:24:54.175Z,36.88
2023-02-03T01:27:44.565Z,36.96
2023-02-03T01:30:16.723Z,36.90
2023-02-03T01:32:47.074Z,37.21
2023-02-03T01:35:15.001Z,37.28
2023-02-03T01:37:45.844Z,36.95
2023-02-03T01:40:13.742Z,37.19
2023-02-03T01:42:47.312Z,37.23
2023-02-03T01:45:14.417Z,37.48
2023-02-03T01:47:55.863Z,37.53
2023-02-03T01:50:41.455Z,37.36
2023-02-03T01:53:15.301Z,37.28
2023-02-03T01:55:50.382Z,37.39
2023-02-03T01:58:45.546Z,37.39
2023-02-03T02:01:18.530Z,37.42
2023-02-03T02:03:56.701Z,37.58
2023-02-03T02:06:24.274Z,37.28
2023-02-03T02:08:59.610Z,36.77
2023-02-03T02:11:39.220Z,37.14
2023-02-03T02:14:10.598Z,36.84
2023-02-03T02:17:01.665Z,36.98
2023-02-03T02:19:54.360Z,36.90
2023-02-03T02:23:00.109Z,36.87
2023-02-03T02:25:49.460Z,36.96
2023-02-03T02:28:35.197Z,36.97
2023-02-03T02:31:29.396Z,37.09
2023-02-03T02:35:10.859Z,37.05
2023-02-03T02:37:59.128Z,37.35
2023-02-03T02:41:05.659Z,37.01
2023-02-03T02:43:52.392Z,37.48
2023-02-03T02:46:40.945Z,36.90
2023-02-03T02:49:17.092Z,37.54
2023-02-03T02:51:55.110Z,37.51
2023-02-03T02:54:29.444Z,37.51
2023-02-03T02:57:03.588Z,37.91
2023-02-03T02:59:39.157Z,38.01
2023-02-03T03:02:14.984Z,37.71
2023-02-03T03:07:59.308Z,38.61
2023-02-03T03:10:34.849Z,38.69
2023-02-03T03:13:06.766Z,37.96
2023-02-03T03:15:41.642Z,37.90
2023-02-03T03:18:30.155Z,37.95
2023-02-03T03:23:57.158Z,38.45
2023-02-03T03:26:38.276Z,37.75
2023-02-03T03:29:35.359Z,37.33
2023-02-03T03:32:39.936Z,38.47
2023-02-03T03:35:13.621Z,37.97
2023-02-03T03:38:09.747Z,38.13
2023-02-03T03:40:44.998Z,38.01
2023-02-03T03:43:27.157Z,38.32
2023-02-03T03:46:16.359Z,38.28
2023-02-03T03:49:14.649Z,38.48
2023-02-03T03:52:04.529Z,38.20
2023-02-03T03:54:40.629Z,37.85
2023-02-03T03:57:31.154Z,37.91
2023-02-03T04:00:07.655Z,38.67
2023-02-03T04:02:44.464Z,38.87
2023-02-03T04:05:17.511Z,38.95
2023-02-03T04:07:48.621Z,38.37
2023-02-03T04:10:32.407Z,38.26
2023-02-03T04:13:02.356Z,37.11
2023-02-03T04:15:35.611Z,37.46
2023-02-03T04:18:06.507Z,37.09
2023-02-03T04:20:42.694Z,37.25
2023-02-03T04:23:26.430Z,37.17
2023-02-03T04:25:59.692Z,36.92
2023-02-03T04:31:11.824Z,37.69
2023-02-03T04:33:44.567Z,37.59
2023-02-03T04:36:18.571Z,36.93
2023-02-03T04:38:49.220Z,36.85
2023-02-03T04:41:23.527Z,36.68
2023-02-03T04:44:18.118Z,37.67
2023-02-03T04:46:50.343Z,37.08
2023-02-03T04:49:20.608Z,37.57
2023-02-03T04:51:53.134Z,37.35
2023-02-03T04:54:30.310Z,37.46
2023-02-03T04:57:00.746Z,37.25
2023-02-03T04:59:32.517Z,37.67
2023-02-03T05:02:05.834Z,37.69
2023-02-03T05:04:37.643Z,38.09
2023-02-03T05:07:22.580Z,38.30
2023-02-03T05:09:49.898Z,38.23
2023-02-03T05:12:24.786Z,38.12
2023-02-03T05:15:07.776Z,37.73
2023-02-03T05:17:40.209Z,38.12
2023-02-03T05:20:13.189Z,38.30
2023-02-03T05:22:46.161Z,38.07
2023-02-03T05:25:30.243Z,37.77
2023-02-03T05:27:57.677Z,38.19
2023-02-03T05:30:29.800Z,38.42
2023-02-03T05:33:04.450Z,38.17
2023-02-03T05:35:46.764Z,39.27
2023-02-03T05:38:14.153Z,38.42
2023-02-03T05:41:08.893Z,38.88
2023-02-03T05:43:36.888Z,38.56
2023-02-03T05:46:08.020Z,38.88
2023-02-03T05:48:36.058Z,38.67
2023-02-03T05:51:11.600Z,38.82
2023-02-03T05:53:39.284Z,38.72
2023-02-03T05:56:08.838Z,38.59
2023-02-03T05:58:42.170Z,38.91
2023-02-03T06:01:09.708Z,38.89
2023-02-03T06:03:41.017Z,39.29
2023-02-03T06:06:20.461Z,38.87
2023-02-03T06:08:47.787Z,38.75
2023-02-03T06:11:24.140Z,38.53
2023-02-03T06:13:58.866Z,39.08
2023-02-03T06:16:34.325Z,39.17
2023-02-03T06:19:08.135Z,39.07
2023-02-03T06:21:46.751Z,39.34
2023-02-03T06:24:40.801Z,39.74
2023-02-03T06:27:11.473Z,39.39
2023-02-03T06:29:42.416Z,38.96
2023-02-03T06:32:16.183Z,39.34
2023-02-03T06:34:43.649Z,39.30
2023-02-03T06:37:17.565Z,40.09
2023-02-03T06:40:04.984Z,40.37
2023-02-03T06:42:40.764Z,40.32
2023-02-03T06:45:21.511Z,40.98
2023-02-03T06:48:33.656Z,41.03
2023-02-03T06:51:31.117Z,40.26
2023-02-03T06:54:54.716Z,39.86
2023-02-03T07:00:47.430Z,40.02
2023-02-03T07:09:42.200Z,39.87
2023-02-03T07:12:13.632Z,39.50
2023-02-03T07:14:46.363Z,39.70
2023-02-03T07:17:26.113Z,39.82
2023-02-03T07:20:19.743Z,40.40
2023-02-03T07:23:21.164Z,40.21
2023-02-03T07:26:26.915Z,40.01
2023-02-03T07:29:24.908Z,40.43
2023-02-03T07:32:27.950Z,39.93
2023-02-03T07:35:26.111Z,40.08
2023-02-03T07:38:21.847Z,39.71
2023-02-03T07:41:17.644Z,40.19
2023-02-03T07:44:24.409Z,39.86
2023-02-03T07:47:15.393Z,39.57
2023-02-03T07:49:55.838Z,39.61
2023-02-03T07:55:43.951Z,40.05
2023-02-03T07:58:48.230Z,40.07
2023-02-03T08:01:44.180Z,39.97
2023-02-03T08:04:24.373Z,39.76
2023-02-03T08:07:22.917Z,39.67
2023-02-03T08:10:18.374Z,39.51
2023-02-03T08:13:08.437Z,39.88
2023-02-03T08:15:54.229Z,39.57
2023-02-03T08:19:00.893Z,39.15
2023-02-03T08:21:57.889Z,39.45
2023-02-03T08:25:13.196Z,38.80
2023-02-03T08:28:04.893Z,38.99
2023-02-03T08:31:01.117Z,39.62
2023-02-03T08:33:57.244Z,39.39
2023-02-03T08:39:28.024Z,39.00
2023-02-03T08:42:24.697Z,38.64
2023-02-03T08:45:15.322Z,38.94
2023-02-03T08:47:57.531Z,38.10
2023-02-03T08:50:49.860Z,37.00
2023-02-03T08:53:56.234Z,36.15
2023-02-03T08:56:49.391Z,34.91
2023-02-03T08:59:44.152Z,34.42
2023-02-03T09:02:49.374Z,33.65
2023-02-03T09:05:38.113Z,32.73
2023-02-03T09:08:45.586Z,32.06
2023-02-03T09:11:31.506Z,31.53
2023-02-03T09:14:50.393Z,30.94
2023-02-03T09:17:54.242Z,30.24
2023-02-03T09:20:57.421Z,29.97
2023-02-03T09:24:11.306Z,29.40
2023-02-03T09:26:48.302Z,29.47
2023-02-03T09:29:43.937Z,28.39
2023-02-03T09:35:31.728Z,27.84
2023-02-03T09:38:04.457Z,27.97
2023-02-03T09:41:11.609Z,27.18
2023-02-03T09:47:45.748Z,26.16
2023-02-03T09:50:39.482Z,26.08
2023-02-03T09:53:34.043Z,25.96
2023-02-03T09:56:55.355Z,25.44
2023-02-03T10:00:01.883Z,25.41
2023-02-03T10:03:10.036Z,25.12
2023-02-03T10:06:24.031Z,24.68
2023-02-03T10:13:05.457Z,23.84
2023-02-03T10:16:26.261Z,23.95
2023-02-03T10:19:29.920Z,23.76
2023-02-03T10:22:27.809Z,23.62
2023-02-03T10:25:52.611Z,23.24
2023-02-03T10:28:59.056Z,23.40
2023-02-03T10:35:06.356Z,22.64
2023-02-03T10:38:00.131Z,22.47
2023-02-03T10:41:11.765Z,22.13
2023-02-03T10:44:08.972Z,21.96
2023-02-03T10:47:46.007Z,21.58
2023-02-03T10:50:32.765Z,21.30
2023-02-03T10:56:38.177Z,20.56
2023-02-03T10:59:44.763Z,20.40
2023-02-03T11:02:46.829Z,20.12
2023-02-03T11:09:04.986Z,19.45
2023-02-03T11:11:50.601Z,19.22
2023-02-03T11:14:50.408Z,19.42
2023-02-03T11:20:54.056Z,19.86
2023-02-03T11:23:29.016Z,19.16
2023-02-03T11:25:59.081Z,19.31
2023-02-03T11:28:42.645Z,18.66
2023-02-03T11:31:29.391Z,18.35
2023-02-03T11:34:22.460Z,18.32
2023-02-03T11:37:09.134Z,19.07
2023-02-03T11:40:23.545Z,17.75
2023-02-03T11:43:24.524Z,18.06
2023-02-03T11:46:15.227Z,17.18
2023-02-03T11:49:15.183Z,16.89
2023-02-03T11:52:37.702Z,17.03
2023-02-03T11:55:46.732Z,15.95
2023-02-03T11:58:33.348Z,16.87
2023-02-03T12:01:18.214Z,15.98
2023-02-03T12:04:29.998Z,16.37
2023-02-03T12:07:17.718Z,17.50
2023-02-03T12:10:18.700Z,16.40
2023-02-03T12:17:13.536Z,16.91
2023-02-03T12:20:19.941Z,15.58
2023-02-03T12:23:55.989Z,15.94
2023-02-03T12:27:00.379Z,15.73
2023-02-03T12:33:19.872Z,15.79
2023-02-03T12:35:58.359Z,16.46
2023-02-03T12:38:52.513Z,16.38
2023-02-03T12:41:43.421Z,15.96
2023-02-03T12:45:09.164Z,16.26
2023-02-03T12:48:24.284Z,15.52
2023-02-03T12:51:21.682Z,15.47
2023-02-03T12:54:07.692Z,14.98
2023-02-03T12:57:18.563Z,14.72
2023-02-03T13:00:19.903Z,14.55
2023-02-03T13:07:12.539Z,16.30
2023-02-03T13:14:35.618Z,18.57
2023-02-03T13:17:42.070Z,18.55
2023-02-03T13:21:00.171Z,21.38
2023-02-03T13:23:56.436Z,21.80
2023-02-03T13:27:05.416Z,22.52
2023-02-03T13:30:06.962Z,22.77
2023-02-03T13:33:32.263Z,23.32
2023-02-03T13:36:24.532Z,23.90
2023-02-03T13:39:19.638Z,23.97
2023-02-03T13:42:29.036Z,24.49
2023-02-03T13:45:33.452Z,24.44
2023-02-03T13:48:24.439Z,25.79
2023-02-03T13:51:22.702Z,26.34
2023-02-03T13:54:17.383Z,26.00
2023-02-03T13:56:56.567Z,26.54
2023-02-03T14:00:02.722Z,26.71
2023-02-03T14:03:03.757Z,27.01
2023-02-03T14:09:39.257Z,29.08
2023-02-03T14:12:46.408Z,29.07
2023-02-03T14:16:04.538Z,28.29
2023-02-03T14:18:58.669Z,27.77
2023-02-03T14:25:15.462Z,27.79
2023-02-03T14:28:26.084Z,27.94
2023-02-03T14:31:20.505Z,28.38
2023-02-03T14:37:25.731Z,27.58
2023-02-03T14:40:12.661Z,27.96
2023-02-03T14:43:10.432Z,27.81
2023-02-03T14:46:00.251Z,28.10
2023-02-03T14:49:09.519Z,29.57
2023-02-03T14:52:10.559Z,29.70
2023-02-03T14:55:31.835Z,31.30
2023-02-03T14:58:07.645Z,31.04
2023-02-03T15:00:58.588Z,31.73
2023-02-03T15:03:37.850Z,31.83
2023-02-03T15:06:09.703Z,32.17
2023-02-03T15:08:53.524Z,33.12
2023-02-03T15:11:51.434Z,31.35
2023-02-03T15:18:45.089Z,33.72
2023-02-03T15:21:44.050Z,34.88
2023-02-03T15:24:40.210Z,35.77
2023-02-03T15:27:45.867Z,36.37
2023-02-03T15:31:19.258Z,36.56
2023-02-03T15:34:45.518Z,36.38
2023-02-03T15:37:17.973Z,36.72
2023-02-03T15:40:09.911Z,36.32
2023-02-03T15:43:28.151Z,35.77
2023-02-03T15:46:04.710Z,35.25
2023-02-03T15:49:24.606Z,35.61
2023-02-03T15:52:34.125Z,35.49
2023-02-03T15:55:38.184Z,34.89
2023-02-03T15:58:28.728Z,34.44
2023-02-03T16:01:08.516Z,32.26
2023-02-03T16:03:56.555Z,31.59
2023-02-03T16:10:09.848Z,31.35
2023-02-03T16:12:43.516Z,31.88
2023-02-03T16:15:28.190Z,31.59
2023-02-03T16:18:10.963Z,31.53
2023-02-03T16:21:00.738Z,31.47
2023-02-03T16:23:37.118Z,31.26
2023-02-03T16:26:41.237Z,31.17
2023-02-03T16:29:45.125Z,30.91
2023-02-03T16:33:11.419Z,30.72
2023-02-03T16:36:16.750Z,30.17
2023-02-03T16:39:34.725Z,29.85
2023-02-03T16:42:37.493Z,29.94
2023-02-03T16:45:44.972Z,29.18
2023-02-03T16:48:54.394Z,29.18
2023-02-03T16:52:03.628Z,29.04
2023-02-03T16:54:42.160Z,29.08
2023-02-03T16:57:34.993Z,29.19
2023-02-03T17:00:16.097Z,29.19
2023-02-03T17:02:47.622Z,30.02
2023-02-03T17:05:21.758Z,30.76
2023-02-03T17:11:23.809Z,31.85
2023-02-03T17:14:07.309Z,32.29
2023-02-03T17:16:34.786Z,32.82
2023-02-03T17:19:29.620Z,33.39
2023-02-03T17:22:13.210Z,34.73
2023-02-03T17:24:45.728Z,34.22
2023-02-03T17:27:18.844Z,35.57
2023-02-03T17:33:27.746Z,37.11
2023-02-03T17:56:29.311Z,39.91
2023-02-03T17:59:24.127Z,40.19
2023-02-03T18:01:59.689Z,39.85
2023-02-03T18:04:45.389Z,42.90
2023-02-03T18:07:31.147Z,42.12
2023-02-03T18:10:06.112Z,42.15
2023-02-03T18:12:39.755Z,42.20
2023-02-03T18:20:51.788Z,43.01
2023-02-03T18:23:22.988Z,43.00
2023-02-03T18:25:56.010Z,42.09
2023-02-03T18:28:31.691Z,42.86
2023-02-03T18:31:24.152Z,42.80
2023-02-03T18:34:13.059Z,43.94
2023-02-03T18:36:55.011Z,42.80
2023-02-03T18:39:32.286Z,41.92
2023-02-03T18:42:03.509Z,41.60
2023-02-03T18:44:35.213Z,42.04
2023-02-03T18:47:15.288Z,41.55
2023-02-03T18:52:46.658Z,40.67
2023-02-03T18:55:19.703Z,40.92
2023-02-03T18:57:55.831Z,41.04
2023-02-03T19:00:36.834Z,41.47
2023-02-03T19:03:04.675Z,41.01
2023-02-03T19:11:46.652Z,41.32
2023-02-03T19:14:38.747Z,41.75
2023-02-03T19:17:33.248Z,41.54
2023-02-03T19:20:13.882Z,42.15
2023-02-03T19:22:50.852Z,41.47
2023-02-03T19:25:36.820Z,42.10
2023-02-03T19:28:40.561Z,42.74
2023-02-03T19:31:23.679Z,41.93
2023-02-03T19:34:07.422Z,42.34
2023-02-03T19:36:53.009Z,41.77
2023-02-03T19:42:25.222Z,42.23
2023-02-03T19:45:24.156Z,42.05
2023-02-03T19:48:04.454Z,41.91
2023-02-03T19:50:46.693Z,42.40
2023-02-03T19:53:44.091Z,43.20
2023-02-03T19:56:35.866Z,42.80
2023-02-03T19:59:21.984Z,43.12
2023-02-03T20:02:27.116Z,43.17
2023-02-03T20:05:00.807Z,43.12
2023-02-03T20:07:48.553Z,43.09
2023-02-03T20:10:31.072Z,43.29
2023-02-03T20:16:20.107Z,44.55
2023-02-03T20:19:12.272Z,44.50
2023-02-03T20:21:54.547Z,44.31
2023-02-03T20:24:40.153Z,45.38
2023-02-03T20:27:32.464Z,45.09
2023-02-03T20:30:23.456Z,44.68
2023-02-03T20:33:11.659Z,44.48
2023-02-03T20:35:45.316Z,45.17
2023-02-03T20:38:27.483Z,44.94
2023-02-03T20:41:15.044Z,44.79
2023-02-03T20:44:00.413Z,45.49
2023-02-03T20:46:42.289Z,45.62
2023-02-03T20:49:32.477Z,45.62
2023-02-03T20:52:12.078Z,44.70
2023-02-03T20:55:13.022Z,45.85
2023-02-03T20:58:00.673Z,45.63
2023-02-03T21:01:05.989Z,46.17
2023-02-03T21:04:03.242Z,45.32
2023-02-03T21:06:34.648Z,45.39
2023-02-03T21:09:37.900Z,46.41
2023-02-03T21:12:17.141Z,46.23
2023-02-03T21:14:53.300Z,46.17
2023-02-03T21:17:34.482Z,46.01
2023-02-03T21:20:16.757Z,45.01
2023-02-03T21:23:14.551Z,44.45
2023-02-03T21:25:51.748Z,43.94
2023-02-03T21:28:29.450Z,42.57
2023-02-03T21:31:05.296Z,41.21
2023-02-03T21:33:54.655Z,40.56
2023-02-03T21:37:05.835Z,40.08
2023-02-03T21:39:48.989Z,39.75
2023-02-03T21:42:42.481Z,38.89
2023-02-03T21:45:20.154Z,38.56
2023-02-03T21:47:55.211Z,38.51
2023-02-03T21:50:35.292Z,38.11
2023-02-03T21:53:35.183Z,37.41
2023-02-03T21:56:43.408Z,37.14
2023-02-03T21:59:47.360Z,37.21
2023-02-03T22:03:13.887Z,37.10
2023-02-03T22:05:55.257Z,37.24
2023-02-03T22:08:40.664Z,37.07
2023-02-03T22:14:00.823Z,37.20
2023-02-03T22:16:33.388Z,37.29
2023-02-03T22:19:09.238Z,36.76
2023-02-03T22:22:21.587Z,36.61
2023-02-03T22:24:54.662Z,37.04
2023-02-03T22:27:26.190Z,36.45
2023-02-03T22:29:59.143Z,36.43
2023-02-03T22:32:56.854Z,36.75
2023-02-03T22:35:36.213Z,36.86
2023-02-03T22:38:22.371Z,36.25
2023-02-03T22:41:21.158Z,36.31
2023-02-03T22:44:23.602Z,36.11
2023-02-03T22:47:20.926Z,36.36
2023-02-03T22:54:05.702Z,35.75
2023-02-03T22:57:19.755Z,36.37
2023-02-03T23:06:37.605Z,35.83
2023-02-03T23:09:39.636Z,36.19
2023-02-03T23:12:39.479Z,36.37
2023-02-03T23:15:20.379Z,36.05
2023-02-03T23:18:12.385Z,36.11
2023-02-03T23:21:19.596Z,35.90
2023-02-03T23:24:11.608Z,36.29
2023-02-03T23:26:57.114Z,36.35
2023-02-03T23:29:47.193Z,36.53
2023-02-03T23:33:01.473Z,36.53
2023-02-03T23:35:50.553Z,36.23
2023-02-03T23:41:47.775Z,36.39
2023-02-03T23:44:27.106Z,36.75
2023-02-03T23:47:11.961Z,36.70
2023-02-03T23:49:59.525Z,36.65
2023-02-03T23:52:41.732Z,36.82
2023-02-03T23:55:25.958Z,36.75
2023-02-03T23:58:11.820Z,36.95
